sensor_id;sensor_type;location;lat;lon;timestamp;temperature;humidity
28520;DHT22;15732;48.534;20.382;2023-04-30T00:00:47;10.60;99.90
28520;DHT22;15732;48.534;20.382;2023-04-30T00:03:18;10.60;99.90
28520;DHT22;15732;48.534;20.382;2023-04-30T00:05:48;10.70;99.90
28520;DHT22;15732;48.534;20.382;2023-04-30T00:08:16;10.70;99.90
28520;DHT22;15732;48.534;20.382;2023-04-30T00:10:47;10.70;99.90
28520;DHT22;15732;48.534;20.382;2023-04-30T00:13:15;10.70;99.90
28520;DHT22;15732;48.534;20.382;2023-04-30T00:15:42;10.70;99.90
28520;DHT22;15732;48.534;20.382;2023-04-30T00:18:10;10.70;99.90
28520;DHT22;15732;48.534;20.382;2023-04-30T00:20:37;10.70;99.90
28520;DHT22;15732;48.534;20.382;2023-04-30T00:23:05;10.80;99.90
28520;DHT22;15732;48.534;20.382;2023-04-30T00:25:32;10.70;99.90
28520;DHT22;15732;48.534;20.382;2023-04-30T00:28:03;10.70;99.90
28520;DHT22;15732;48.534;20.382;2023-04-30T00:30:31;10.70;99.90
28520;DHT22;15732;48.534;20.382;2023-04-30T00:32:58;10.60;99.90
28520;DHT22;15732;48.534;20.382;2023-04-30T00:35:26;10.60;99.90
28520;DHT22;15732;48.534;20.382;2023-04-30T00:37:53;10.50;99.90
28520;DHT22;15732;48.534;20.382;2023-04-30T00:40:24;10.40;99.90
28520;DHT22;15732;48.534;20.382;2023-04-30T00:42:52;10.30;99.90
28520;DHT22;15732;48.534;20.382;2023-04-30T00:45:22;10.20;99.90
28520;DHT22;15732;48.534;20.382;2023-04-30T00:47:49;10.20;99.90
28520;DHT22;15732;48.534;20.382;2023-04-30T00:50:16;10.20;99.90
28520;DHT22;15732;48.534;20.382;2023-04-30T00:52:48;10.20;99.90
28520;DHT22;15732;48.534;20.382;2023-04-30T00:55:16;10.30;99.90
28520;DHT22;15732;48.534;20.382;2023-04-30T00:57:43;10.30;99.90
28520;DHT22;15732;48.534;20.382;2023-04-30T01:00:12;10.20;99.90
28520;DHT22;15732;48.534;20.382;2023-04-30T01:02:40;10.00;99.90
28520;DHT22;15732;48.534;20.382;2023-04-30T01:05:06;9.90;99.90
28520;DHT22;15732;48.534;20.382;2023-04-30T01:07:35;9.80;99.90
28520;DHT22;15732;48.534;20.382;2023-04-30T01:10:11;9.80;99.90
28520;DHT22;15732;48.534;20.382;2023-04-30T01:13:06;9.70;99.90
28520;DHT22;15732;48.534;20.382;2023-04-30T01:16:04;9.70;99.90
28520;DHT22;15732;48.534;20.382;2023-04-30T01:18:44;9.70;99.90
28520;DHT22;15732;48.534;20.382;2023-04-30T01:21:13;9.80;99.90
28520;DHT22;15732;48.534;20.382;2023-04-30T01:26:58;9.80;99.90
28520;DHT22;15732;48.534;20.382;2023-04-30T01:29:25;9.70;99.90
28520;DHT22;15732;48.534;20.382;2023-04-30T01:31:57;9.50;99.90
28520;DHT22;15732;48.534;20.382;2023-04-30T01:34:24;9.50;99.90
28520;DHT22;15732;48.534;20.382;2023-04-30T01:37:05;9.30;99.90
28520;DHT22;15732;48.534;20.382;2023-04-30T01:50:51;9.10;99.90
28520;DHT22;15732;48.534;20.382;2023-04-30T01:53:27;9.10;99.90
28520;DHT22;15732;48.534;20.382;2023-04-30T01:56:02;9.00;99.90
28520;DHT22;15732;48.534;20.382;2023-04-30T01:58:31;9.00;99.90
28520;DHT22;15732;48.534;20.382;2023-04-30T02:01:03;9.00;99.90
28520;DHT22;15732;48.534;20.382;2023-04-30T02:03:32;9.00;99.90
28520;DHT22;15732;48.534;20.382;2023-04-30T02:06:02;9.10;99.90
28520;DHT22;15732;48.534;20.382;2023-04-30T02:08:34;9.20;99.90
28520;DHT22;15732;48.534;20.382;2023-04-30T02:11:01;9.30;99.90
28520;DHT22;15732;48.534;20.382;2023-04-30T02:13:29;9.40;99.90
28520;DHT22;15732;48.534;20.382;2023-04-30T02:15:56;9.50;99.90
28520;DHT22;15732;48.534;20.382;2023-04-30T02:18:24;9.50;99.90
28520;DHT22;15732;48.534;20.382;2023-04-30T02:20:55;9.40;99.90
28520;DHT22;15732;48.534;20.382;2023-04-30T02:23:26;9.40;99.90
28520;DHT22;15732;48.534;20.382;2023-04-30T02:25:53;9.20;99.90
28520;DHT22;15732;48.534;20.382;2023-04-30T02:28:21;9.10;99.90
28520;DHT22;15732;48.534;20.382;2023-04-30T02:30:48;8.90;99.90
28520;DHT22;15732;48.534;20.382;2023-04-30T02:33:16;8.80;99.90
28520;DHT22;15732;48.534;20.382;2023-04-30T02:35:43;8.80;99.90
28520;DHT22;15732;48.534;20.382;2023-04-30T02:38:11;8.80;99.90
28520;DHT22;15732;48.534;20.382;2023-04-30T02:40:39;8.90;99.90
28520;DHT22;15732;48.534;20.382;2023-04-30T02:43:07;9.00;99.90
28520;DHT22;15732;48.534;20.382;2023-04-30T02:45:34;9.10;99.90
28520;DHT22;15732;48.534;20.382;2023-04-30T02:48:09;9.20;99.90
28520;DHT22;15732;48.534;20.382;2023-04-30T02:50:40;9.20;99.90
28520;DHT22;15732;48.534;20.382;2023-04-30T02:53:08;9.20;99.90
28520;DHT22;15732;48.534;20.382;2023-04-30T02:55:35;9.30;99.90
28520;DHT22;15732;48.534;20.382;2023-04-30T02:58:03;9.40;99.90
28520;DHT22;15732;48.534;20.382;2023-04-30T03:00:30;9.20;99.90
28520;DHT22;15732;48.534;20.382;2023-04-30T03:02:57;9.10;99.90
28520;DHT22;15732;48.534;20.382;2023-04-30T03:05:24;9.00;99.90
28520;DHT22;15732;48.534;20.382;2023-04-30T03:07:51;8.90;99.90
28520;DHT22;15732;48.534;20.382;2023-04-30T03:10:18;8.70;99.90
28520;DHT22;15732;48.534;20.382;2023-04-30T03:12:45;8.60;99.90
28520;DHT22;15732;48.534;20.382;2023-04-30T03:15:17;8.60;99.90
28520;DHT22;15732;48.534;20.382;2023-04-30T03:17:44;8.60;99.90
28520;DHT22;15732;48.534;20.382;2023-04-30T03:20:12;8.60;99.90
28520;DHT22;15732;48.534;20.382;2023-04-30T03:22:42;8.60;99.90
28520;DHT22;15732;48.534;20.382;2023-04-30T03:25:09;8.70;99.90
28520;DHT22;15732;48.534;20.382;2023-04-30T03:27:37;8.70;99.90
28520;DHT22;15732;48.534;20.382;2023-04-30T03:30:09;8.60;99.90
28520;DHT22;15732;48.534;20.382;2023-04-30T03:32:36;8.50;99.90
28520;DHT22;15732;48.534;20.382;2023-04-30T03:35:05;8.40;99.90
28520;DHT22;15732;48.534;20.382;2023-04-30T03:37:33;8.40;99.90
28520;DHT22;15732;48.534;20.382;2023-04-30T03:40:01;8.40;99.90
28520;DHT22;15732;48.534;20.382;2023-04-30T03:42:33;8.40;99.90
28520;DHT22;15732;48.534;20.382;2023-04-30T03:45:00;8.40;99.90
28520;DHT22;15732;48.534;20.382;2023-04-30T03:47:27;8.50;99.90
28520;DHT22;15732;48.534;20.382;2023-04-30T03:49:55;8.60;99.90
28520;DHT22;15732;48.534;20.382;2023-04-30T03:52:22;8.70;99.90
28520;DHT22;15732;48.534;20.382;2023-04-30T03:54:49;8.50;99.90
28520;DHT22;15732;48.534;20.382;2023-04-30T03:57:16;8.40;99.90
28520;DHT22;15732;48.534;20.382;2023-04-30T03:59:43;8.40;99.90
28520;DHT22;15732;48.534;20.382;2023-04-30T04:02:10;8.40;99.90
28520;DHT22;15732;48.534;20.382;2023-04-30T04:04:41;8.50;99.90
28520;DHT22;15732;48.534;20.382;2023-04-30T04:07:09;8.50;99.90
28520;DHT22;15732;48.534;20.382;2023-04-30T04:09:36;8.70;99.90
28520;DHT22;15732;48.534;20.382;2023-04-30T04:12:04;8.40;99.90
28520;DHT22;15732;48.534;20.382;2023-04-30T04:14:35;8.30;99.90
28520;DHT22;15732;48.534;20.382;2023-04-30T04:17:02;8.30;99.90
28520;DHT22;15732;48.534;20.382;2023-04-30T04:19:31;8.50;99.90
28520;DHT22;15732;48.534;20.382;2023-04-30T04:21:58;8.60;99.90
28520;DHT22;15732;48.534;20.382;2023-04-30T04:24:26;8.50;99.90
28520;DHT22;15732;48.534;20.382;2023-04-30T04:26:53;8.40;99.90
28520;DHT22;15732;48.534;20.382;2023-04-30T04:29:21;8.40;99.90
28520;DHT22;15732;48.534;20.382;2023-04-30T04:31:48;8.40;99.90
28520;DHT22;15732;48.534;20.382;2023-04-30T04:34:20;8.40;99.90
28520;DHT22;15732;48.534;20.382;2023-04-30T04:36:47;8.40;99.90
28520;DHT22;15732;48.534;20.382;2023-04-30T04:39:14;8.40;99.90
28520;DHT22;15732;48.534;20.382;2023-04-30T04:41:42;8.50;99.90
28520;DHT22;15732;48.534;20.382;2023-04-30T04:44:09;8.60;99.90
28520;DHT22;15732;48.534;20.382;2023-04-30T04:46:37;8.70;99.90
28520;DHT22;15732;48.534;20.382;2023-04-30T04:49:10;8.70;99.90
28520;DHT22;15732;48.534;20.382;2023-04-30T04:51:38;8.80;99.90
28520;DHT22;15732;48.534;20.382;2023-04-30T04:54:09;8.90;99.90
28520;DHT22;15732;48.534;20.382;2023-04-30T04:56:37;8.90;99.90
28520;DHT22;15732;48.534;20.382;2023-04-30T04:59:04;9.00;99.90
28520;DHT22;15732;48.534;20.382;2023-04-30T05:01:32;8.90;99.90
28520;DHT22;15732;48.534;20.382;2023-04-30T05:03:59;8.80;99.90
28520;DHT22;15732;48.534;20.382;2023-04-30T05:06:27;8.70;99.90
28520;DHT22;15732;48.534;20.382;2023-04-30T05:08:59;8.70;99.90
28520;DHT22;15732;48.534;20.382;2023-04-30T05:11:26;8.70;99.90
28520;DHT22;15732;48.534;20.382;2023-04-30T05:13:54;8.80;99.90
28520;DHT22;15732;48.534;20.382;2023-04-30T05:16:24;8.70;99.90
28520;DHT22;15732;48.534;20.382;2023-04-30T05:18:52;8.80;99.90
28520;DHT22;15732;48.534;20.382;2023-04-30T05:21:19;8.80;99.90
28520;DHT22;15732;48.534;20.382;2023-04-30T05:23:46;8.90;99.90
28520;DHT22;15732;48.534;20.382;2023-04-30T05:26:14;8.90;99.90
28520;DHT22;15732;48.534;20.382;2023-04-30T05:28:43;8.90;99.90
28520;DHT22;15732;48.534;20.382;2023-04-30T05:31:15;8.90;99.90
28520;DHT22;15732;48.534;20.382;2023-04-30T05:33:43;9.00;99.90
28520;DHT22;15732;48.534;20.382;2023-04-30T05:36:10;9.00;99.90
28520;DHT22;15732;48.534;20.382;2023-04-30T05:38:37;9.00;99.90
28520;DHT22;15732;48.534;20.382;2023-04-30T05:41:04;8.90;99.90
28520;DHT22;15732;48.534;20.382;2023-04-30T05:43:32;9.00;99.90
28520;DHT22;15732;48.534;20.382;2023-04-30T05:45:59;8.90;99.90
28520;DHT22;15732;48.534;20.382;2023-04-30T05:48:26;9.00;99.90
28520;DHT22;15732;48.534;20.382;2023-04-30T05:50:54;9.10;99.90
28520;DHT22;15732;48.534;20.382;2023-04-30T05:53:21;9.10;99.90
28520;DHT22;15732;48.534;20.382;2023-04-30T05:55:49;9.10;99.90
28520;DHT22;15732;48.534;20.382;2023-04-30T05:58:16;9.20;99.90
28520;DHT22;15732;48.534;20.382;2023-04-30T06:00:50;9.30;99.90
28520;DHT22;15732;48.534;20.382;2023-04-30T06:03:18;9.40;99.90
28520;DHT22;15732;48.534;20.382;2023-04-30T06:05:45;9.50;99.90
28520;DHT22;15732;48.534;20.382;2023-04-30T06:08:12;9.50;99.90
28520;DHT22;15732;48.534;20.382;2023-04-30T06:10:40;9.50;99.90
28520;DHT22;15732;48.534;20.382;2023-04-30T06:13:08;9.50;99.90
28520;DHT22;15732;48.534;20.382;2023-04-30T06:15:39;9.60;99.90
28520;DHT22;15732;48.534;20.382;2023-04-30T06:18:11;9.60;99.90
28520;DHT22;15732;48.534;20.382;2023-04-30T06:20:39;9.50;99.90
28520;DHT22;15732;48.534;20.382;2023-04-30T06:23:07;9.60;99.90
28520;DHT22;15732;48.534;20.382;2023-04-30T06:25:34;9.60;99.90
28520;DHT22;15732;48.534;20.382;2023-04-30T06:28:01;9.60;99.90
28520;DHT22;15732;48.534;20.382;2023-04-30T06:30:30;9.60;99.90
28520;DHT22;15732;48.534;20.382;2023-04-30T06:32:57;9.70;99.90
28520;DHT22;15732;48.534;20.382;2023-04-30T06:35:29;9.80;99.90
28520;DHT22;15732;48.534;20.382;2023-04-30T06:37:56;9.80;99.90
28520;DHT22;15732;48.534;20.382;2023-04-30T06:40:23;9.90;99.90
28520;DHT22;15732;48.534;20.382;2023-04-30T06:42:51;10.10;99.90
28520;DHT22;15732;48.534;20.382;2023-04-30T06:45:22;10.10;99.90
28520;DHT22;15732;48.534;20.382;2023-04-30T06:47:50;10.20;99.90
28520;DHT22;15732;48.534;20.382;2023-04-30T06:50:21;10.20;99.90
28520;DHT22;15732;48.534;20.382;2023-04-30T06:52:49;10.30;99.90
28520;DHT22;15732;48.534;20.382;2023-04-30T06:55:17;10.40;99.90
28520;DHT22;15732;48.534;20.382;2023-04-30T06:57:44;10.40;99.90
28520;DHT22;15732;48.534;20.382;2023-04-30T07:00:12;10.40;99.90
28520;DHT22;15732;48.534;20.382;2023-04-30T07:02:43;10.50;99.90
28520;DHT22;15732;48.534;20.382;2023-04-30T07:05:13;10.40;99.90
28520;DHT22;15732;48.534;20.382;2023-04-30T07:07:41;10.50;99.90
28520;DHT22;15732;48.534;20.382;2023-04-30T07:10:13;10.50;99.90
28520;DHT22;15732;48.534;20.382;2023-04-30T07:12:40;10.60;99.90
28520;DHT22;15732;48.534;20.382;2023-04-30T07:15:08;10.60;99.90
28520;DHT22;15732;48.534;20.382;2023-04-30T07:17:37;10.70;99.90
28520;DHT22;15732;48.534;20.382;2023-04-30T07:20:11;10.70;99.90
28520;DHT22;15732;48.534;20.382;2023-04-30T07:22:42;10.70;99.90
28520;DHT22;15732;48.534;20.382;2023-04-30T07:25:14;10.80;99.90
28520;DHT22;15732;48.534;20.382;2023-04-30T07:27:41;10.90;99.90
28520;DHT22;15732;48.534;20.382;2023-04-30T07:30:13;11.00;99.90
28520;DHT22;15732;48.534;20.382;2023-04-30T07:32:40;11.10;99.90
28520;DHT22;15732;48.534;20.382;2023-04-30T07:35:12;11.20;99.90
28520;DHT22;15732;48.534;20.382;2023-04-30T07:37:40;11.20;99.90
28520;DHT22;15732;48.534;20.382;2023-04-30T07:40:11;11.30;99.90
28520;DHT22;15732;48.534;20.382;2023-04-30T07:42:40;11.40;99.90
28520;DHT22;15732;48.534;20.382;2023-04-30T07:45:07;11.50;99.90
28520;DHT22;15732;48.534;20.382;2023-04-30T07:47:35;11.50;99.90
28520;DHT22;15732;48.534;20.382;2023-04-30T07:50:08;11.60;99.90
28520;DHT22;15732;48.534;20.382;2023-04-30T07:52:36;11.70;99.90
28520;DHT22;15732;48.534;20.382;2023-04-30T07:55:04;11.70;99.90
28520;DHT22;15732;48.534;20.382;2023-04-30T07:57:32;11.80;99.90
28520;DHT22;15732;48.534;20.382;2023-04-30T07:59:59;11.90;99.90
28520;DHT22;15732;48.534;20.382;2023-04-30T08:02:27;12.00;99.90
28520;DHT22;15732;48.534;20.382;2023-04-30T08:04:54;12.00;99.90
28520;DHT22;15732;48.534;20.382;2023-04-30T08:07:22;12.10;99.90
28520;DHT22;15732;48.534;20.382;2023-04-30T08:09:51;12.10;99.90
28520;DHT22;15732;48.534;20.382;2023-04-30T08:12:22;12.20;99.90
28520;DHT22;15732;48.534;20.382;2023-04-30T08:14:49;12.30;99.90
28520;DHT22;15732;48.534;20.382;2023-04-30T08:17:25;12.40;99.90
28520;DHT22;15732;48.534;20.382;2023-04-30T08:19:52;12.50;99.90
28520;DHT22;15732;48.534;20.382;2023-04-30T08:22:20;12.50;99.90
28520;DHT22;15732;48.534;20.382;2023-04-30T08:24:48;12.60;99.90
28520;DHT22;15732;48.534;20.382;2023-04-30T08:27:15;12.70;99.90
28520;DHT22;15732;48.534;20.382;2023-04-30T08:29:47;12.70;99.90
28520;DHT22;15732;48.534;20.382;2023-04-30T08:32:18;12.80;99.90
28520;DHT22;15732;48.534;20.382;2023-04-30T08:34:46;12.80;99.90
28520;DHT22;15732;48.534;20.382;2023-04-30T08:37:17;12.90;99.90
28520;DHT22;15732;48.534;20.382;2023-04-30T08:39:45;13.00;99.90
28520;DHT22;15732;48.534;20.382;2023-04-30T08:42:13;13.10;99.90
28520;DHT22;15732;48.534;20.382;2023-04-30T08:44:45;13.10;99.90
28520;DHT22;15732;48.534;20.382;2023-04-30T08:47:13;13.20;99.90
28520;DHT22;15732;48.534;20.382;2023-04-30T08:49:46;13.30;99.90
28520;DHT22;15732;48.534;20.382;2023-04-30T08:52:18;13.40;99.90
28520;DHT22;15732;48.534;20.382;2023-04-30T08:54:46;13.50;99.90
28520;DHT22;15732;48.534;20.382;2023-04-30T08:57:18;13.60;99.90
28520;DHT22;15732;48.534;20.382;2023-04-30T08:59:45;13.60;99.90
28520;DHT22;15732;48.534;20.382;2023-04-30T09:02:16;13.70;99.90
28520;DHT22;15732;48.534;20.382;2023-04-30T09:04:48;13.80;99.90
28520;DHT22;15732;48.534;20.382;2023-04-30T09:07:17;13.80;99.90
28520;DHT22;15732;48.534;20.382;2023-04-30T09:09:52;14.00;99.90
28520;DHT22;15732;48.534;20.382;2023-04-30T09:12:23;14.10;99.90
28520;DHT22;15732;48.534;20.382;2023-04-30T09:15:03;14.20;99.90
28520;DHT22;15732;48.534;20.382;2023-04-30T09:17:31;14.40;99.90
28520;DHT22;15732;48.534;20.382;2023-04-30T09:20:11;14.50;99.90
28520;DHT22;15732;48.534;20.382;2023-04-30T09:22:40;14.50;99.90
28520;DHT22;15732;48.534;20.382;2023-04-30T09:25:11;14.60;99.90
28520;DHT22;15732;48.534;20.382;2023-04-30T09:27:42;14.70;99.90
28520;DHT22;15732;48.534;20.382;2023-04-30T09:30:30;14.70;99.90
28520;DHT22;15732;48.534;20.382;2023-04-30T09:33:01;14.70;99.90
28520;DHT22;15732;48.534;20.382;2023-04-30T09:35:32;14.70;99.90
28520;DHT22;15732;48.534;20.382;2023-04-30T09:38:01;14.70;99.90
28520;DHT22;15732;48.534;20.382;2023-04-30T09:40:41;14.80;99.90
28520;DHT22;15732;48.534;20.382;2023-04-30T09:43:13;14.80;99.90
28520;DHT22;15732;48.534;20.382;2023-04-30T09:45:47;14.80;99.90
28520;DHT22;15732;48.534;20.382;2023-04-30T09:48:34;14.90;99.90
28520;DHT22;15732;48.534;20.382;2023-04-30T09:51:10;14.90;99.90
28520;DHT22;15732;48.534;20.382;2023-04-30T09:53:38;14.90;99.90
28520;DHT22;15732;48.534;20.382;2023-04-30T09:56:07;14.90;99.90
28520;DHT22;15732;48.534;20.382;2023-04-30T09:58:36;15.00;99.90
28520;DHT22;15732;48.534;20.382;2023-04-30T10:01:08;15.00;99.90
28520;DHT22;15732;48.534;20.382;2023-04-30T10:03:41;15.00;99.90
28520;DHT22;15732;48.534;20.382;2023-04-30T10:06:12;15.00;99.90
28520;DHT22;15732;48.534;20.382;2023-04-30T10:08:42;15.00;99.90
28520;DHT22;15732;48.534;20.382;2023-04-30T10:11:14;15.00;99.90
28520;DHT22;15732;48.534;20.382;2023-04-30T10:16:43;15.00;99.90
28520;DHT22;15732;48.534;20.382;2023-04-30T10:19:23;15.00;99.90
28520;DHT22;15732;48.534;20.382;2023-04-30T10:21:50;15.00;99.90
28520;DHT22;15732;48.534;20.382;2023-04-30T10:24:22;14.90;99.90
28520;DHT22;15732;48.534;20.382;2023-04-30T10:26:49;15.00;99.90
28520;DHT22;15732;48.534;20.382;2023-04-30T10:29:17;14.90;99.90
28520;DHT22;15732;48.534;20.382;2023-04-30T10:31:49;15.00;99.90
28520;DHT22;15732;48.534;20.382;2023-04-30T10:39:52;15.00;99.90
28520;DHT22;15732;48.534;20.382;2023-04-30T10:42:20;15.00;99.90
28520;DHT22;15732;48.534;20.382;2023-04-30T10:44:47;15.00;99.90
28520;DHT22;15732;48.534;20.382;2023-04-30T10:47:19;15.10;99.90
28520;DHT22;15732;48.534;20.382;2023-04-30T10:49:48;15.10;99.90
28520;DHT22;15732;48.534;20.382;2023-04-30T10:52:26;15.10;99.90
28520;DHT22;15732;48.534;20.382;2023-04-30T10:54:54;15.10;99.90
28520;DHT22;15732;48.534;20.382;2023-04-30T10:57:28;15.00;99.90
28520;DHT22;15732;48.534;20.382;2023-04-30T11:02:39;15.00;99.90
28520;DHT22;15732;48.534;20.382;2023-04-30T11:05:11;14.90;99.90
28520;DHT22;15732;48.534;20.382;2023-04-30T11:07:57;14.90;99.90
28520;DHT22;15732;48.534;20.382;2023-04-30T11:10:32;14.90;99.90
28520;DHT22;15732;48.534;20.382;2023-04-30T11:13:04;14.90;99.90
28520;DHT22;15732;48.534;20.382;2023-04-30T11:15:39;14.90;99.90
28520;DHT22;15732;48.534;20.382;2023-04-30T11:18:12;14.90;99.90
28520;DHT22;15732;48.534;20.382;2023-04-30T11:20:40;14.90;99.90
28520;DHT22;15732;48.534;20.382;2023-04-30T11:23:14;14.90;99.90
28520;DHT22;15732;48.534;20.382;2023-04-30T11:25:46;14.90;99.90
28520;DHT22;15732;48.534;20.382;2023-04-30T11:28:16;14.90;99.90
28520;DHT22;15732;48.534;20.382;2023-04-30T11:31:09;14.90;99.90
28520;DHT22;15732;48.534;20.382;2023-04-30T11:33:39;14.90;99.90
28520;DHT22;15732;48.534;20.382;2023-04-30T11:36:07;14.90;99.90
28520;DHT22;15732;48.534;20.382;2023-04-30T11:38:36;14.90;99.90
28520;DHT22;15732;48.534;20.382;2023-04-30T11:41:03;15.00;99.90
28520;DHT22;15732;48.534;20.382;2023-04-30T11:43:32;15.00;99.90
28520;DHT22;15732;48.534;20.382;2023-04-30T11:46:10;15.10;99.90
28520;DHT22;15732;48.534;20.382;2023-04-30T11:48:42;15.10;99.90
28520;DHT22;15732;48.534;20.382;2023-04-30T11:51:22;15.20;99.90
28520;DHT22;15732;48.534;20.382;2023-04-30T11:53:55;15.20;99.90
28520;DHT22;15732;48.534;20.382;2023-04-30T11:56:23;15.20;99.90
28520;DHT22;15732;48.534;20.382;2023-04-30T11:58:51;15.30;99.90
28520;DHT22;15732;48.534;20.382;2023-04-30T12:01:19;15.40;99.90
28520;DHT22;15732;48.534;20.382;2023-04-30T12:03:49;15.40;99.90
28520;DHT22;15732;48.534;20.382;2023-04-30T12:06:23;15.50;99.90
28520;DHT22;15732;48.534;20.382;2023-04-30T12:08:59;15.50;99.90
28520;DHT22;15732;48.534;20.382;2023-04-30T12:11:38;15.60;99.90
28520;DHT22;15732;48.534;20.382;2023-04-30T12:14:07;15.60;99.90
28520;DHT22;15732;48.534;20.382;2023-04-30T12:17:00;15.70;99.90
28520;DHT22;15732;48.534;20.382;2023-04-30T12:19:29;15.80;99.90
28520;DHT22;15732;48.534;20.382;2023-04-30T12:22:04;15.80;99.90
28520;DHT22;15732;48.534;20.382;2023-04-30T12:24:38;15.90;99.90
28520;DHT22;15732;48.534;20.382;2023-04-30T12:27:06;15.90;99.90
28520;DHT22;15732;48.534;20.382;2023-04-30T12:29:42;15.90;99.90
28520;DHT22;15732;48.534;20.382;2023-04-30T12:32:16;16.10;99.90
28520;DHT22;15732;48.534;20.382;2023-04-30T12:34:44;16.10;99.90
28520;DHT22;15732;48.534;20.382;2023-04-30T12:37:14;16.10;99.90
28520;DHT22;15732;48.534;20.382;2023-04-30T12:39:42;16.10;99.90
28520;DHT22;15732;48.534;20.382;2023-04-30T12:42:10;16.20;99.90
28520;DHT22;15732;48.534;20.382;2023-04-30T12:44:42;16.20;99.90
28520;DHT22;15732;48.534;20.382;2023-04-30T12:47:10;16.20;99.90
28520;DHT22;15732;48.534;20.382;2023-04-30T12:49:44;16.20;99.90
28520;DHT22;15732;48.534;20.382;2023-04-30T12:52:15;16.20;99.90
28520;DHT22;15732;48.534;20.382;2023-04-30T12:54:42;16.30;99.90
28520;DHT22;15732;48.534;20.382;2023-04-30T12:57:11;16.30;99.90
28520;DHT22;15732;48.534;20.382;2023-04-30T12:59:54;16.30;99.90
28520;DHT22;15732;48.534;20.382;2023-04-30T13:02:23;16.30;99.90
28520;DHT22;15732;48.534;20.382;2023-04-30T13:04:55;16.30;99.90
28520;DHT22;15732;48.534;20.382;2023-04-30T13:07:22;16.30;99.90
28520;DHT22;15732;48.534;20.382;2023-04-30T13:09:50;16.30;99.90
28520;DHT22;15732;48.534;20.382;2023-04-30T13:12:18;16.30;99.90
28520;DHT22;15732;48.534;20.382;2023-04-30T13:14:45;16.40;99.90
28520;DHT22;15732;48.534;20.382;2023-04-30T13:17:13;16.40;99.90
28520;DHT22;15732;48.534;20.382;2023-04-30T13:19:40;16.40;99.90
28520;DHT22;15732;48.534;20.382;2023-04-30T13:22:08;16.40;99.90
28520;DHT22;15732;48.534;20.382;2023-04-30T13:24:35;16.40;99.90
28520;DHT22;15732;48.534;20.382;2023-04-30T13:27:07;16.50;99.90
28520;DHT22;15732;48.534;20.382;2023-04-30T13:29:34;16.60;99.90
28520;DHT22;15732;48.534;20.382;2023-04-30T13:32:05;16.60;99.90
28520;DHT22;15732;48.534;20.382;2023-04-30T13:34:38;16.60;99.90
28520;DHT22;15732;48.534;20.382;2023-04-30T13:37:05;16.70;99.90
28520;DHT22;15732;48.534;20.382;2023-04-30T13:39:33;16.70;99.90
28520;DHT22;15732;48.534;20.382;2023-04-30T13:42:00;16.90;99.90
28520;DHT22;15732;48.534;20.382;2023-04-30T13:44:32;17.00;99.90
28520;DHT22;15732;48.534;20.382;2023-04-30T13:47:02;17.10;99.90
28520;DHT22;15732;48.534;20.382;2023-04-30T13:49:29;17.20;99.90
28520;DHT22;15732;48.534;20.382;2023-04-30T13:51:57;17.30;99.90
28520;DHT22;15732;48.534;20.382;2023-04-30T13:54:24;17.30;99.90
28520;DHT22;15732;48.534;20.382;2023-04-30T13:56:52;17.40;99.90
28520;DHT22;15732;48.534;20.382;2023-04-30T13:59:24;17.40;99.90
28520;DHT22;15732;48.534;20.382;2023-04-30T14:01:50;17.40;99.90
28520;DHT22;15732;48.534;20.382;2023-04-30T14:04:37;17.30;99.90
28520;DHT22;15732;48.534;20.382;2023-04-30T14:07:04;17.30;99.90
28520;DHT22;15732;48.534;20.382;2023-04-30T14:09:31;17.30;99.90
28520;DHT22;15732;48.534;20.382;2023-04-30T14:11:59;17.30;99.90
28520;DHT22;15732;48.534;20.382;2023-04-30T14:14:26;17.20;99.90
28520;DHT22;15732;48.534;20.382;2023-04-30T14:16:58;17.20;99.90
28520;DHT22;15732;48.534;20.382;2023-04-30T14:19:26;17.30;99.90
28520;DHT22;15732;48.534;20.382;2023-04-30T14:21:53;17.40;99.90
28520;DHT22;15732;48.534;20.382;2023-04-30T14:24:21;17.50;99.90
28520;DHT22;15732;48.534;20.382;2023-04-30T14:26:52;17.60;99.90
28520;DHT22;15732;48.534;20.382;2023-04-30T14:29:19;17.60;99.90
28520;DHT22;15732;48.534;20.382;2023-04-30T14:31:50;17.60;99.90
28520;DHT22;15732;48.534;20.382;2023-04-30T14:34:18;17.60;99.90
28520;DHT22;15732;48.534;20.382;2023-04-30T14:36:45;17.60;99.90
28520;DHT22;15732;48.534;20.382;2023-04-30T14:39:12;17.60;99.90
28520;DHT22;15732;48.534;20.382;2023-04-30T14:41:40;17.60;99.90
28520;DHT22;15732;48.534;20.382;2023-04-30T14:44:07;17.60;99.90
28520;DHT22;15732;48.534;20.382;2023-04-30T14:46:36;17.60;99.90
28520;DHT22;15732;48.534;20.382;2023-04-30T14:49:07;17.60;99.90
28520;DHT22;15732;48.534;20.382;2023-04-30T14:51:34;17.60;99.90
28520;DHT22;15732;48.534;20.382;2023-04-30T14:54:02;17.60;99.90
28520;DHT22;15732;48.534;20.382;2023-04-30T14:56:33;17.60;99.90
28520;DHT22;15732;48.534;20.382;2023-04-30T14:59:04;17.60;99.90
28520;DHT22;15732;48.534;20.382;2023-04-30T15:01:31;17.60;99.90
28520;DHT22;15732;48.534;20.382;2023-04-30T15:03:59;17.50;99.90
28520;DHT22;15732;48.534;20.382;2023-04-30T15:06:26;17.50;99.90
28520;DHT22;15732;48.534;20.382;2023-04-30T15:08:57;17.50;99.90
28520;DHT22;15732;48.534;20.382;2023-04-30T15:11:29;17.50;99.90
28520;DHT22;15732;48.534;20.382;2023-04-30T15:13:57;17.50;99.90
28520;DHT22;15732;48.534;20.382;2023-04-30T15:16:28;17.50;99.90
28520;DHT22;15732;48.534;20.382;2023-04-30T15:18:59;17.50;99.90
28520;DHT22;15732;48.534;20.382;2023-04-30T15:21:27;17.50;99.90
28520;DHT22;15732;48.534;20.382;2023-04-30T15:23:58;17.40;99.90
28520;DHT22;15732;48.534;20.382;2023-04-30T15:26:27;17.40;99.90
28520;DHT22;15732;48.534;20.382;2023-04-30T15:28:59;17.40;99.90
28520;DHT22;15732;48.534;20.382;2023-04-30T15:31:26;17.40;99.90
28520;DHT22;15732;48.534;20.382;2023-04-30T15:34:03;17.40;99.90
28520;DHT22;15732;48.534;20.382;2023-04-30T15:36:34;17.40;99.90
28520;DHT22;15732;48.534;20.382;2023-04-30T15:39:06;17.30;99.90
28520;DHT22;15732;48.534;20.382;2023-04-30T15:41:33;17.30;99.90
28520;DHT22;15732;48.534;20.382;2023-04-30T15:44:01;17.30;99.90
28520;DHT22;15732;48.534;20.382;2023-04-30T15:46:28;17.30;99.90
28520;DHT22;15732;48.534;20.382;2023-04-30T15:48:59;17.20;99.90
28520;DHT22;15732;48.534;20.382;2023-04-30T15:51:26;17.20;99.90
28520;DHT22;15732;48.534;20.382;2023-04-30T15:53:57;17.20;99.90
28520;DHT22;15732;48.534;20.382;2023-04-30T15:56:25;17.20;99.90
28520;DHT22;15732;48.534;20.382;2023-04-30T15:58:52;17.10;99.90
28520;DHT22;15732;48.534;20.382;2023-04-30T16:01:19;17.10;99.90